Whiteville, Louisiana
Current Conditions -  °F | °C
As of 5:55 AM on Monday 22 Dec 2014 (Local Time) from KOPL Reporting Station
Haze Haze  
Wind Chill: 51°   Ceiling: 200
Heat Index: 51°   Visibility: 1.7mi
Dew Point: 51°   Wind: 0mph
Humidity: 99%   Direction: NA
Pressure: 29.81"   Gusts: NA
Location:  30.9328°N, 92.1876°W
Report Text: KOPL 221155Z AUTO 00000KT 1 3/4SM BR OVC002 11/11 A2981 RMK AO2 T01070105 10107 20085
Loading
Personal Weather Stations






























Interactive Weather Map New forecast layout! Learn more

10-Day Weather Forecast

Advertisements
Track Severe Weather on mobile